CheckWX is a tool to help pilots better visualize weather data.  It is not intended as a substitute for an official pre-flight weather briefing.

09:08:47 UTC

ESNQ TAF
Kiruna Airport
Sweden
TAF ESNQ 220830Z 2209/2218 21009KT CAVOK TEMPO 2211/2214 4000 -RASN OVC030 TEMPO 2214/2218 -FZDZ OVC030

Feb-22@
09:00 UTC

Feb-22 @ 09:00 UTC

Feb-22@
18:00 UTC

Feb-22 @ 18:00 UTC

TAF ESNQ 220830Z 2209/2218 21009KT CAVOK
Wind
  • 210° at 9 KTS
Conditions
No significant weather
Cloud Levels
  • No significant clouds

Feb-22@
11:00 UTC

Feb-22 @ 11:00 UTC

Feb-22@
14:00 UTC

Feb-22 @ 14:00 UTC

TEMPO 2211/2214 4000 -RASN OVC030

Temporary

TemporaryChanges expected for less than half the time period

Conditions
Light Rain, Light Snow
Cloud Levels
  • Overcast at 3,000' AGL

Feb-22@
14:00 UTC

Feb-22 @ 14:00 UTC

Feb-22@
18:00 UTC

Feb-22 @ 18:00 UTC

TEMPO 2214/2218 -FZDZ OVC030

Temporary

TemporaryChanges expected for less than half the time period

Conditions
Light Freezing Light Drizzle
Cloud Levels
  • Overcast at 3,000' AGL